Latest Weather Observations for Cape Sorell

IDT60801

Issued at 1:11 pm EST Monday 20 August 2018 (issued every 10 minutes, with the page automatically refreshed every 10 minutes)

About weather observations | Map of weather stations | Latest weather observations for TAS | Other Formats
Station Details ID: 097000 Name: CAPE SORELL Lat: -42.20 Lon: 145.17 Height: 19.3 m
Data from the previous 72 hours. | See also: Recent months at Cape Sorell
Date/Time
EST
Temp
°C
App
Temp
°C
Dew
Point
°C
Rel
Hum
%
Delta-T
°C
Wind Press
QNH
hPa
Press
MSL
hPa
Rain since
9am
mm
Dir  Spd
km/h
Gust
km/h
Spd
kts
Gust
kts
20/01:00pm 9.5 0.8 7.8 89 0.8 W 43 63 23 34 1009.9 1010.0 4.4
20/12:40pm 8.5 -0.4 7.0 90 0.7 W 43 61 23 33 1010.8 1010.9 4.4
20/12:30pm 8.2 -1.0 6.5 89 0.8 W 44 61 24 33 1010.8 1010.9 4.4
20/12:13pm 8.1 -2.3 5.9 86 1.0 WNW 50 74 27 40 1011.2 1011.3 3.0
20/12:11pm 8.5 -1.5 6.3 86 1.0 WNW 48 72 26 39 1011.2 1011.3 3.0
20/12:00pm 10.3 2.2 8.6 89 0.8 NW 41 61 22 33 1011.1 1011.2 2.8
20/11:52am 10.3 2.2 8.6 89 0.8 NW 41 61 22 33 1011.2 1011.3 2.8
20/11:30am 10.0 1.8 8.4 90 0.8 NW 41 52 22 28 1012.1 1012.2 2.8
20/11:20am 10.0 2.7 8.6 91 0.7 NW 37 57 20 31 1012.4 1012.5 2.8
20/11:00am 10.1 2.0 8.7 91 0.7 NW 41 56 22 30 1012.8 1012.9 2.8
20/10:30am 9.3 1.7 7.7 90 0.8 NW 37 54 20 29 1013.5 1013.6 2.6
20/10:00am 9.2 2.4 7.6 90 0.8 NNW 33 43 18 23 1014.1 1014.2 2.6
20/09:53am 9.0 2.2 7.6 91 0.7 NNW 33 43 18 23 1014.3 1014.4 2.4
20/09:30am 8.2 0.4 6.7 90 0.7 N 37 46 20 25 1014.9 1015.0 2.4
20/09:18am 8.1 1.0 6.6 90 0.7 N 33 54 18 29 1014.8 1014.9 2.2
20/09:00am 7.6 0.0 5.9 89 0.8 N 35 44 19 24 1015.5 1015.6 3.2
20/08:30am 7.4 0.3 5.4 87 0.9 N 32 41 17 22 1016.5 1016.5 2.6
20/08:00am 7.2 0.0 5.0 86 1.0 N 32 39 17 21 1016.9 1016.9 2.2
20/07:30am 7.5 2.5 4.8 83 1.2 NNW 20 32 11 17 1017.5 1017.5 1.8
20/07:00am 7.7 1.6 4.7 81 1.3 N 26 32 14 17 1017.7 1017.7 1.4
20/06:30am 7.9 2.9 4.5 79 1.5 NNW 20 32 11 17 1018.0 1018.0 1.0
20/06:00am 7.5 2.6 4.3 80 1.4 NNW 19 24 10 13 1018.3 1018.3 1.0
20/05:30am 7.2 2.7 4.2 81 1.3 NNW 17 28 9 15 1018.7 1018.7 1.0
20/05:00am 6.8 1.9 3.9 82 1.2 NW 19 26 10 14 1019.2 1019.2 1.0
20/04:30am 6.5 2.0 4.0 84 1.1 WNW 17 22 9 12 1019.5 1019.5 1.0
20/04:00am 6.1 2.7 4.1 87 0.8 N 11 24 6 13 1020.0 1020.0 1.0
20/03:30am 6.3 1.2 4.3 87 0.9 NNE 20 24 11 13 1020.2 1020.2 1.0
20/03:00am 6.3 1.4 4.0 85 1.0 NNE 19 24 10 13 1020.5 1020.5 1.0
20/02:30am 6.0 1.7 3.5 84 1.0 NE 15 19 8 10 1021.2 1021.2 0.8
20/02:00am 5.6 1.2 2.8 82 1.1 NE 15 19 8 10 1021.7 1021.7 0.8
20/01:30am 5.9 2.3 2.9 81 1.2 NNE 11 15 6 8 1022.2 1022.2 0.8
20/01:00am 6.1 2.1 3.1 81 1.2 NNE 13 17 7 9 1022.2 1022.2 0.4
20/12:30am 5.0 2.0 1.8 80 1.3 NE 7 9 4 5 1022.6 1022.6 0.4
20/12:00am 5.6 2.2 2.1 78 1.4 ENE 9 9 5 5 1022.8 1022.8 0.4
 
Date/Time
EST
Temp
°C
App
Temp
°C
Dew
Point
°C
Rel
Hum
%
Delta-T
°C
Wind Press
QNH
hPa
Press
MSL
hPa
Rain since
9am
mm
Dir  Spd
km/h
Gust
km/h
Spd
kts
Gust
kts
19/11:30pm 5.3 1.4 1.4 76 1.5 E 11 13 6 7 1022.7 1022.7 0.4
19/11:00pm 5.3 1.0 1.2 75 1.6 E 13 17 7 9 1022.8 1022.8 0.4
19/10:30pm 5.5 0.8 1.1 73 1.7 E 15 20 8 11 1022.8 1022.8 0.4
19/10:00pm 5.5 1.2 0.9 72 1.8 SE 13 15 7 8 1023.0 1023.0 0.4
19/09:30pm 5.1 0.7 0.3 71 1.8 ESE 13 17 7 9 1023.1 1023.1 0.4
19/09:00pm 5.8 1.4 0.4 68 2.1 E 13 17 7 9 1023.2 1023.2 0.4
19/08:30pm 8.4 1.3 1.1 60 3.0 S 28 35 15 19 1023.1 1023.1 0.4
19/08:00pm 8.3 1.6 1.7 63 2.7 S 26 35 14 19 1023.1 1023.1 0.4
19/07:30pm 8.1 0.7 1.7 64 2.6 S 30 39 16 21 1022.9 1022.9 0.4
19/07:00pm 8.0 0.7 2.7 69 2.2 S 30 37 16 20 1022.7 1022.7 0.4
19/06:30pm 8.2 0.6 2.7 68 2.3 S 32 37 17 20 1022.3 1022.3 0.4
19/06:00pm 8.2 -0.7 2.9 69 2.2 S 39 48 21 26 1021.9 1021.9 0.4
19/05:30pm 8.4 -0.4 3.5 71 2.1 S 39 52 21 28 1021.5 1021.5 0.4
19/05:20pm 8.5 0.7 3.1 69 2.3 S 33 54 18 29 1021.4 1021.4 0.4
19/05:00pm 8.8 0.2 2.8 66 2.5 SSW 37 48 20 26 1021.0 1021.0 0.4
19/04:30pm 8.6 -1.7 2.4 65 2.6 SSW 46 56 25 30 1020.9 1020.9 0.4
19/04:00pm 8.8 -0.9 2.8 66 2.5 SSW 43 50 23 27 1020.7 1020.7 0.4
19/03:32pm 8.5 -0.3 3.4 70 2.2 SSW 39 69 21 37 1020.8 1020.8 0.4
19/03:30pm 7.8 -2.0 2.3 68 2.3 SSW 43 69 23 37 1020.8 1020.8 0.4
19/03:23pm 8.9 -1.8 2.7 65 2.6 SSW 48 69 26 37 1020.3 1020.3 0.4
19/03:00pm 9.1 -0.7 3.1 66 2.6 SSW 44 54 24 29 1020.3 1020.3 0.4
19/02:40pm 8.9 -0.8 3.9 71 2.2 SSW 44 63 24 34 1020.3 1020.3 0.4
19/02:30pm 9.0 -1.1 4.0 71 2.2 SSW 46 57 25 31 1019.7 1019.7 0.4
19/02:00pm 8.3 -2.3 3.2 70 2.2 SW 48 63 26 34 1019.8 1019.8 0.4
19/01:30pm 9.2 -2.0 2.1 61 3.0 SSW 50 57 27 31 1019.2 1019.2 0.4
19/01:00pm 9.5 -1.0 3.7 67 2.5 SSW 48 59 26 32 1019.0 1019.0 0.4
19/12:35pm 9.3 -0.8 3.9 69 2.4 SSW 46 65 25 35 1019.2 1019.2 0.4
19/12:30pm 9.8 -1.4 4.2 68 2.5 SSW 52 65 28 35 1019.0 1019.0 0.4
19/12:09pm 8.6 -0.4 4.4 75 1.8 SSW 41 65 22 35 1018.8 1018.8 0.4
19/12:00pm 8.9 0.4 5.1 77 1.7 S 39 54 21 29 1019.2 1019.2 0.4
19/11:30am 8.0 -1.4 4.6 79 1.5 S 43 54 23 29 1018.9 1018.9 0.2
19/11:04am 8.0 -0.5 5.1 82 1.3 S 39 57 21 31 1018.8 1018.8 0.2
19/11:00am 7.0 -1.7 4.0 81 1.3 S 39 56 21 30 1018.8 1018.8 0.2
19/10:39am 6.9 -2.9 3.3 78 1.5 S 44 63 24 34 1018.5 1018.5 0.0
19/10:30am 8.0 -3.5 4.2 77 1.7 S 54 65 29 35 1018.3 1018.3 0.0
19/10:00am 7.4 -2.4 3.5 76 1.7 S 44 65 24 35 1017.9 1017.9 0.0
19/09:59am 7.4 -2.4 3.5 76 1.7 S 44 65 24 35 1017.9 1017.9 0.0
19/09:30am 7.8 -4.2 3.7 75 1.8 SSW 56 70 30 38 1017.1 1017.1 0.0
19/09:15am 8.7 -0.9 3.3 69 2.3 S 43 67 23 36 1016.9 1016.9 0.0
19/09:00am 8.7 -1.5 3.3 69 2.3 S 46 61 25 33 1016.5 1016.5 13.8
19/08:32am 8.1 -3.3 2.8 69 2.2 S 52 70 28 38 1016.0 1016.0 13.8
19/08:30am 8.3 -3.4 3.2 70 2.2 S 54 72 29 39 1016.0 1016.0 13.8
19/08:00am 8.0 -3.7 3.3 72 2.0 S 54 72 29 39 1015.1 1015.2 13.8
19/07:52am 8.3 -3.4 3.4 71 2.1 S 54 74 29 40 1015.0 1015.1 13.8
19/07:30am 8.2 -5.1 3.7 73 1.9 SSW 63 80 34 43 1014.1 1014.2 13.8
19/07:00am 8.6 -4.8 5.5 81 1.4 SSW 65 83 35 45 1012.7 1012.8 13.8
19/06:30am 8.2 -5.1 5.7 84 1.1 S 65 87 35 47 1011.3 1011.4 13.8
19/06:00am 8.3 -7.0 6.4 88 0.9 SSW 76 95 41 51 1009.9 1010.0 13.8
19/05:42am 8.3 -4.8 6.9 91 0.7 S 65 89 35 48 1010.2 1010.3 13.8
19/05:39am 8.1 -5.0 6.7 91 0.6 S 65 89 35 48 1009.5 1009.6 13.8
19/05:30am 7.1 -3.0 5.7 91 0.6 S 48 76 26 41 1010.1 1010.2 13.6
19/05:25am 7.3 -1.4 5.9 91 0.6 S 41 61 22 33 1009.6 1009.7 13.4
19/05:20am 7.2 -0.8 5.8 91 0.6 S 37 52 20 28 1010.1 1010.2 13.2
19/05:06am 6.6 -5.1 5.2 91 0.6 S 56 98 30 53 1009.8 1009.9 12.6
19/05:02am 7.9 -1.6 6.7 92 0.6 S 46 98 25 53 1008.4 1008.5 12.6
19/05:01am 7.9 -1.0 6.7 92 0.6 S 43 76 23 41 1008.7 1008.8 12.4
19/05:00am 7.8 -0.4 6.6 92 0.6 S 39 70 21 38 1008.8 1008.9 12.4
19/04:59am 7.5 -0.4 6.3 92 0.5 S 37 67 20 36 1009.1 1009.2 12.4
19/04:43am 5.9 -3.1 4.4 90 0.6 SSE 41 65 22 35 1009.0 1009.1 11.8
19/04:30am 7.1 -4.5 5.6 90 0.7 S 56 74 30 40 1008.5 1008.6 10.8
19/04:08am 7.5 -4.3 5.8 89 0.8 S 57 78 31 42 1007.6 1007.7 10.0
19/04:00am 7.8 -5.1 6.1 89 0.8 S 63 80 34 43 1007.2 1007.3 10.0
19/03:49am 7.7 -2.3 6.2 90 0.7 S 48 72 26 39 1006.8 1006.9 10.0
19/03:44am 7.4 -1.3 5.9 90 0.7 S 41 61 22 33 1007.0 1007.1 10.0
19/03:42am 7.0 -1.9 5.3 89 0.8 S 41 61 22 33 1007.0 1007.1 10.0
19/03:31am 7.8 -3.7 6.1 89 0.8 S 56 74 30 40 1006.5 1006.6 9.6
19/03:30am 7.7 -4.0 6.0 89 0.8 S 57 74 31 40 1006.5 1006.6 9.6
19/03:21am 7.8 0.7 6.3 90 0.7 S 33 67 18 36 1005.9 1006.0 9.4
19/03:19am 7.3 0.6 5.8 90 0.7 S 30 59 16 32 1006.3 1006.4 9.4
19/03:00am 6.4 -1.1 4.6 88 0.8 SSE 33 48 18 26 1005.8 1005.9 8.2
19/02:30am 7.6 -2.6 5.4 86 1.0 S 48 69 26 37 1005.1 1005.2 7.6
19/02:26am 8.0 -3.2 5.8 86 1.0 SSW 54 69 29 37 1005.0 1005.1 7.2
19/02:00am 8.4 -4.8 6.4 87 0.9 SSW 65 78 35 42 1003.8 1003.8 7.0
19/01:30am 8.5 -3.9 6.6 88 0.9 SSW 61 74 33 40 1003.0 1003.0 7.0
19/01:25am 8.5 -2.9 6.6 88 0.9 SSW 56 74 30 40 1002.9 1002.9 7.0
19/01:19am 8.7 -0.2 7.0 89 0.8 SSW 43 74 23 40 1003.1 1003.1 6.8
19/01:00am 7.8 -0.9 5.8 87 0.9 SW 41 48 22 26 1003.5 1003.5 6.6
19/12:30am 8.6 0.0 6.4 86 1.0 SSW 41 48 22 26 1003.3 1003.3 6.4
19/12:00am 8.0 -2.0 6.0 87 0.9 SW 48 57 26 31 1003.1 1003.1 6.4
 
Date/Time
EST
Temp
°C
App
Temp
°C
Dew
Point
°C
Rel
Hum
%
Delta-T
°C
Wind Press
QNH
hPa
Press
MSL
hPa
Rain since
9am
mm
Dir  Spd
km/h
Gust
km/h
Spd
kts
Gust
kts
18/11:30pm 7.6 -3.3 5.4 86 1.0 SW 52 65 28 35 1003.3 1003.3 6.4
18/11:00pm 8.2 -2.6 5.8 85 1.1 SW 52 63 28 34 1002.5 1002.5 6.2
18/10:43pm 7.5 0.1 5.0 84 1.1 SW 33 52 18 28 1003.0 1003.0 6.0
18/10:30pm 8.1 2.1 5.4 83 1.2 SW 26 32 14 17 1003.2 1003.2 5.6
18/10:00pm 7.6 0.8 5.1 84 1.1 SW 30 33 16 18 1003.0 1003.0 5.6
18/09:30pm 7.2 2.2 4.7 84 1.1 SW 20 28 11 15 1003.2 1003.2 5.6
18/09:00pm 6.6 1.1 3.9 83 1.2 SW 22 28 12 15 1002.8 1002.8 5.6
18/08:48pm 6.8 -3.3 3.9 82 1.2 SW 46 63 25 34 1002.5 1002.5 5.6
18/08:40pm 7.4 -2.2 4.4 81 1.3 SW 44 63 24 34 1001.9 1001.9 5.4
18/08:30pm 7.7 1.2 4.7 81 1.3 SW 28 43 15 23 1002.1 1002.1 5.4
18/08:00pm 7.7 1.8 3.9 77 1.6 SW 24 32 13 17 1002.1 1002.1 2.6
18/07:30pm 8.0 2.2 4.4 78 1.6 SW 24 32 13 17 1001.7 1001.7 2.0
18/07:00pm 7.5 0.0 4.3 80 1.4 SW 33 39 18 21 1001.1 1001.1 2.0
18/06:39pm 8.4 1.5 4.8 78 1.6 SSW 30 56 16 30 1000.6 1000.6 1.8
18/06:30pm 7.9 0.9 4.3 78 1.6 SW 30 35 16 19 1000.7 1000.7 1.8
18/06:00pm 7.1 2.1 3.7 79 1.5 W 19 28 10 15 1000.4 1000.4 1.8
18/05:45pm 7.7 2.6 4.1 78 1.6 W 20 44 11 24 999.9 999.9 1.8
18/05:30pm 7.1 2.8 3.3 77 1.6 WNW 15 20 8 11 1000.0 1000.0 1.8
18/05:00pm 7.1 1.0 3.0 75 1.7 W 24 44 13 24 999.7 999.7 1.8
18/04:36pm 8.2 1.4 3.1 70 2.2 W 28 46 15 25 998.9 998.9 1.8
18/04:30pm 8.4 2.4 3.3 70 2.2 W 24 32 13 17 999.1 999.1 1.8
18/04:00pm 8.5 2.5 3.1 69 2.3 W 24 35 13 19 999.0 999.0 1.8
18/03:30pm 9.4 3.1 4.0 69 2.4 W 26 37 14 20 999.0 999.0 1.8
18/03:00pm 9.5 2.5 4.3 70 2.3 WSW 30 41 16 22 998.6 998.6 1.8
18/02:30pm 9.5 2.3 5.1 74 2.0 W 32 44 17 24 998.3 998.3 1.8
18/02:00pm 8.4 2.7 5.0 79 1.5 W 24 41 13 22 998.4 998.4 1.6
18/01:30pm 8.2 0.7 4.6 78 1.6 W 33 50 18 27 998.0 998.0 1.6
18/01:28pm 8.6 1.8 5.0 78 1.6 W 30 48 16 26 997.9 997.9 1.6
18/01:00pm 8.0 0.6 4.2 77 1.7 W 32 43 17 23 998.4 998.4 1.6
18/12:30pm 9.8 1.9 4.4 69 2.4 W 35 46 19 25 998.0 998.0 1.6
18/12:00pm 9.8 2.6 4.8 71 2.3 W 32 43 17 23 998.2 998.2 1.6
18/11:30am 9.4 1.0 5.8 78 1.6 WNW 39 50 21 27 998.4 998.4 1.6
18/11:00am 8.4 0.7 5.3 81 1.4 WNW 35 50 19 27 998.4 998.4 1.4
18/10:51am 8.9 1.9 6.0 82 1.3 NW 32 50 17 27 998.4 998.4 1.4
18/10:30am 9.2 2.7 6.6 84 1.2 NNW 30 37 16 20 998.6 998.6 1.4
18/10:09am 7.2 0.9 4.0 80 1.4 NW 26 48 14 26 998.7 998.7 1.4
18/10:00am 8.3 3.0 5.1 80 1.4 N 22 32 12 17 998.3 998.3 0.6
18/09:30am 7.2 0.4 3.3 76 1.6 WNW 28 54 15 29 999.1 999.1 0.6
18/09:27am 7.0 -1.2 2.9 75 1.7 WNW 35 54 19 29 999.1 999.1 0.6
18/09:00am 9.5 1.6 4.3 70 2.3 NW 35 46 19 25 998.8 998.8 35.8
18/08:30am 9.0 1.1 4.2 72 2.1 NW 35 50 19 27 998.9 998.9 35.8
18/08:00am 9.5 2.1 4.9 73 2.1 WNW 33 52 18 28 998.8 998.8 35.8
18/07:30am 8.3 1.3 4.1 75 1.8 WNW 30 41 16 22 998.8 998.8 35.8
18/07:16am 9.1 2.2 4.7 74 2.0 WNW 30 50 16 27 998.8 998.8 35.8
18/07:00am 8.8 1.5 4.4 74 2.0 WNW 32 43 17 23 998.7 998.7 35.8
18/06:30am 8.9 1.8 5.5 79 1.5 WNW 32 39 17 21 998.6 998.6 35.8
18/06:00am 8.6 1.9 5.7 82 1.3 W 30 39 16 21 998.4 998.4 35.8
18/05:30am 8.4 3.2 5.7 83 1.2 W 22 30 12 16 998.5 998.5 35.8
18/05:00am 8.5 1.3 6.1 85 1.1 WNW 33 44 18 24 998.6 998.6 35.8
18/04:30am 8.3 1.2 6.3 87 0.9 WNW 33 46 18 25 998.3 998.3 35.8
18/04:00am 7.7 2.6 6.0 89 0.8 W 22 33 12 18 998.1 998.1 35.8
18/03:44am 8.3 1.4 6.4 88 0.9 WNW 32 54 17 29 998.2 998.2 35.2
18/03:30am 8.1 3.0 6.2 88 0.9 WNW 22 30 12 16 998.1 998.1 34.8
18/03:00am 8.1 2.3 6.4 89 0.8 WNW 26 35 14 19 998.6 998.6 34.8
18/02:30am 7.8 1.6 6.1 89 0.8 WNW 28 35 15 19 998.7 998.7 34.6
18/02:00am 7.5 1.3 6.0 90 0.7 W 28 43 15 23 998.6 998.6 34.6
18/01:30am 7.5 0.0 6.1 91 0.6 W 35 52 19 28 998.3 998.3 34.6
18/01:25am 8.1 1.6 6.7 91 0.6 W 30 52 16 28 998.4 998.4 34.4
18/01:00am 8.2 1.8 6.8 91 0.7 W 30 41 16 22 998.3 998.3 33.8
18/12:30am 8.9 2.7 7.7 92 0.6 NW 30 44 16 24 998.1 998.1 32.6
18/12:00am 9.1 4.1 7.9 92 0.6 NW 24 32 13 17 998.0 998.0 31.4
 
Date/Time
EST
Temp
°C
App
Temp
°C
Dew
Point
°C
Rel
Hum
%
Delta-T
°C
Wind Press
QNH
hPa
Press
MSL
hPa
Rain since
9am
mm
Dir  Spd
km/h
Gust
km/h
Spd
kts
Gust
kts
17/11:30pm 8.5 3.6 7.1 91 0.7 WNW 22 33 12 18 998.2 998.2 30.4
17/11:00pm 8.5 3.6 7.1 91 0.7 W 22 33 12 18 998.2 998.2 29.0
17/10:30pm 9.2 2.0 7.8 91 0.7 W 35 48 19 26 998.3 998.3 27.4
17/10:00pm 9.4 2.9 8.2 92 0.6 WNW 32 43 17 23 998.5 998.5 26.4
17/09:30pm 9.3 1.4 7.9 91 0.7 WNW 39 48 21 26 998.5 998.5 25.0
17/09:00pm 10.5 4.7 9.3 92 0.6 NW 30 41 16 22 998.6 998.6 23.0
17/08:30pm 10.2 3.7 9.0 92 0.6 NW 33 48 18 26 998.7 998.7 22.0
17/08:07pm 10.8 4.5 9.6 92 0.6 NW 33 54 18 29 998.9 998.9 21.8
17/08:00pm 10.7 3.6 9.5 92 0.6 NW 37 54 20 29 998.9 998.9 21.8
17/07:35pm 10.2 4.7 9.0 92 0.6 NW 28 57 15 31 998.8 998.8 21.0
17/07:30pm 10.0 5.2 8.8 92 0.6 NW 24 33 13 18 999.3 999.3 19.4
17/07:12pm 9.2 1.6 7.6 90 0.8 NNW 37 56 20 30 999.6 999.6 16.4
17/07:00pm 11.2 1.6 9.6 90 0.8 N 50 65 27 35 998.9 998.9 10.4
17/06:30pm 11.4 4.7 9.8 90 0.8 N 35 56 19 30 998.5 998.5 8.2
17/06:01pm 11.8 2.0 10.0 89 0.9 NNW 52 70 28 38 999.4 999.4 6.8
17/06:00pm 11.9 1.7 10.1 89 0.9 NNW 54 70 29 38 999.4 999.4 6.8
17/05:31pm 11.5 2.8 9.9 90 0.8 NNW 46 67 25 36 999.6 999.6 6.8
17/05:30pm 11.5 2.4 9.9 90 0.8 NNW 48 67 26 36 999.6 999.6 6.8
17/05:09pm 11.5 3.4 9.9 90 0.8 NNW 43 61 23 33 999.7 999.7 6.2
17/05:00pm 11.4 1.5 9.8 90 0.8 N 52 65 28 35 999.6 999.6 6.0
17/04:48pm 11.1 4.0 9.4 89 0.9 NNW 37 57 20 31 1000.1 1000.1 6.0
17/04:30pm 11.4 1.1 9.5 88 1.0 N 54 69 29 37 1000.1 1000.1 4.8
17/04:19pm 11.0 1.6 8.9 87 1.0 NNW 48 67 26 36 1000.4 1000.4 4.8
17/04:00pm 12.0 3.2 9.7 86 1.2 N 46 57 25 31 1000.4 1000.4 3.8
17/03:30pm 11.8 3.4 9.5 86 1.2 N 44 54 24 29 1000.9 1000.9 3.8
17/03:00pm 11.5 3.9 9.2 86 1.2 NNW 39 52 21 28 1001.5 1001.5 3.8
17/02:49pm 11.2 4.3 8.8 85 1.2 NNW 35 54 19 29 1001.7 1001.7 3.6
17/02:30pm 11.4 3.6 8.4 82 1.5 NNW 39 54 21 29 1001.9 1001.9 3.4
17/02:00pm 12.2 4.5 8.7 79 1.8 NNW 39 52 21 28 1002.0 1002.0 3.0
17/01:33pm 12.2 5.8 9.2 82 1.5 NNW 33 52 18 28 1002.6 1002.6 3.0
17/01:30pm 12.1 5.3 9.1 82 1.5 NNW 35 52 19 28 1002.6 1002.6 3.0

Other Formats:

Comma delimited format used in spreadsheet applications
http://www.bom.gov.au/fwo/IDT60801/IDT60801.94974.axf

JavaScript Object Notation format (JSON) in row-major order
http://www.bom.gov.au/fwo/IDT60801/IDT60801.94974.json